North Hanover, New Jersey
Current Conditions -  °F | °C
As of 9:58 AM on Saturday 20 Dec 2014 (Local Time) from KWRI Reporting Station
Overcast Overcast  
Wind Chill: 24°   Ceiling: 2600
Heat Index: 32°   Visibility: 10mi
Dew Point: 21°   Wind: 9mph
Humidity: 65%   Direction: 340°NNW
Pressure: 30.28"   Gusts: NA
Location:  40.0733°N, 74.5866°W
Report Text: KWRI 201458Z AUTO 34008KT 10SM OVC026 00/M06 A3028 RMK AO2 SLP259 T10021060 50014 $
Loading
Personal Weather Stations






























Interactive Weather Map New forecast layout! Learn more

10-Day Weather Forecast

Advertisements
Track Severe Weather on mobile